Rowley Shoals, Australia
Current Conditions -  °F | °C
As of 10:30 AM on Friday 21 Nov 2014 (Local Time) from YPPD Reporting Station
Clear Clear  
Wind Chill: 99°   Ceiling: Unl
Heat Index: 101°   Visibility: 6mi
Dew Point: 64°   Wind: 15mph
Humidity: 32%   Direction: 310°NW
Pressure: 29.8"   Gusts: NA
Location:  17.53°S, 118.95°E
Report Text: YPPD 210230Z AUTO 31013KT 9999 // NCD 37/18 Q1009
Loading
Personal Weather Stations






























Interactive Weather Map New forecast layout! Learn more

10-Day Weather Forecast

Advertisements
Track Severe Weather on mobile